sensor_id;sensor_type;location;lat;lon;timestamp;temperature;humidity
76936;DHT22;65881;52.438;16.744;2023-07-20T00:01:16;16.10;87.40
76936;DHT22;65881;52.438;16.744;2023-07-20T00:03:41;16.00;87.90
76936;DHT22;65881;52.438;16.744;2023-07-20T00:06:07;16.00;87.70
76936;DHT22;65881;52.438;16.744;2023-07-20T00:08:34;16.00;88.80
76936;DHT22;65881;52.438;16.744;2023-07-20T00:11:00;16.00;88.90
76936;DHT22;65881;52.438;16.744;2023-07-20T00:13:25;16.10;89.20
76936;DHT22;65881;52.438;16.744;2023-07-20T00:15:52;16.00;89.50
76936;DHT22;65881;52.438;16.744;2023-07-20T00:18:17;16.00;89.10
76936;DHT22;65881;52.438;16.744;2023-07-20T00:20:52;16.00;88.80
76936;DHT22;65881;52.438;16.744;2023-07-20T00:23:18;16.00;88.80
76936;DHT22;65881;52.438;16.744;2023-07-20T00:25:47;16.00;88.90
76936;DHT22;65881;52.438;16.744;2023-07-20T00:28:12;16.00;88.60
76936;DHT22;65881;52.438;16.744;2023-07-20T00:30:38;15.90;88.70
76936;DHT22;65881;52.438;16.744;2023-07-20T00:33:04;15.80;89.30
76936;DHT22;65881;52.438;16.744;2023-07-20T00:35:30;15.80;90.00
76936;DHT22;65881;52.438;16.744;2023-07-20T00:37:55;15.80;90.70
76936;DHT22;65881;52.438;16.744;2023-07-20T00:40:21;15.80;91.40
76936;DHT22;65881;52.438;16.744;2023-07-20T00:42:47;15.80;91.40
76936;DHT22;65881;52.438;16.744;2023-07-20T00:45:12;15.80;91.20
76936;DHT22;65881;52.438;16.744;2023-07-20T00:47:38;15.80;90.80
76936;DHT22;65881;52.438;16.744;2023-07-20T00:50:07;15.80;90.90
76936;DHT22;65881;52.438;16.744;2023-07-20T00:52:33;15.70;91.00
76936;DHT22;65881;52.438;16.744;2023-07-20T00:54:59;15.70;90.90
76936;DHT22;65881;52.438;16.744;2023-07-20T00:57:27;15.70;91.20
76936;DHT22;65881;52.438;16.744;2023-07-20T00:59:53;15.70;91.80
76936;DHT22;65881;52.438;16.744;2023-07-20T01:02:19;15.70;92.00
76936;DHT22;65881;52.438;16.744;2023-07-20T01:04:45;15.60;91.70
76936;DHT22;65881;52.438;16.744;2023-07-20T01:07:37;15.60;92.00
76936;DHT22;65881;52.438;16.744;2023-07-20T01:12:48;15.60;91.70
76936;DHT22;65881;52.438;16.744;2023-07-20T01:15:16;15.60;91.90
76936;DHT22;65881;52.438;16.744;2023-07-20T01:17:41;15.60;91.80
76936;DHT22;65881;52.438;16.744;2023-07-20T01:20:09;15.60;92.30
76936;DHT22;65881;52.438;16.744;2023-07-20T01:28:37;15.50;91.90
76936;DHT22;65881;52.438;16.744;2023-07-20T01:31:21;15.50;91.90
76936;DHT22;65881;52.438;16.744;2023-07-20T01:33:50;15.50;92.00
76936;DHT22;65881;52.438;16.744;2023-07-20T01:36:18;15.40;92.40
76936;DHT22;65881;52.438;16.744;2023-07-20T01:38:44;15.40;92.70
76936;DHT22;65881;52.438;16.744;2023-07-20T01:41:11;15.40;92.90
76936;DHT22;65881;52.438;16.744;2023-07-20T01:43:37;15.30;93.00
76936;DHT22;65881;52.438;16.744;2023-07-20T01:46:02;15.30;93.00
76936;DHT22;65881;52.438;16.744;2023-07-20T01:48:28;15.30;93.40
76936;DHT22;65881;52.438;16.744;2023-07-20T01:50:54;15.30;94.00
76936;DHT22;65881;52.438;16.744;2023-07-20T01:53:20;15.30;94.30
76936;DHT22;65881;52.438;16.744;2023-07-20T01:55:46;15.30;94.30
76936;DHT22;65881;52.438;16.744;2023-07-20T01:58:12;15.30;94.40
76936;DHT22;65881;52.438;16.744;2023-07-20T02:00:38;15.20;94.70
76936;DHT22;65881;52.438;16.744;2023-07-20T02:03:04;15.20;94.80
76936;DHT22;65881;52.438;16.744;2023-07-20T02:05:30;15.20;94.80
76936;DHT22;65881;52.438;16.744;2023-07-20T02:07:56;15.20;94.90
76936;DHT22;65881;52.438;16.744;2023-07-20T02:10:22;15.20;94.80
76936;DHT22;65881;52.438;16.744;2023-07-20T02:12:47;15.20;94.90
76936;DHT22;65881;52.438;16.744;2023-07-20T02:15:18;15.20;94.80
76936;DHT22;65881;52.438;16.744;2023-07-20T02:17:44;15.10;94.70
76936;DHT22;65881;52.438;16.744;2023-07-20T02:20:11;15.10;94.80
76936;DHT22;65881;52.438;16.744;2023-07-20T02:22:37;15.00;95.20
76936;DHT22;65881;52.438;16.744;2023-07-20T02:25:06;15.00;95.30
76936;DHT22;65881;52.438;16.744;2023-07-20T02:27:33;15.00;95.20
76936;DHT22;65881;52.438;16.744;2023-07-20T02:30:06;15.00;95.40
76936;DHT22;65881;52.438;16.744;2023-07-20T02:32:32;15.00;95.70
76936;DHT22;65881;52.438;16.744;2023-07-20T02:35:04;15.00;95.90
76936;DHT22;65881;52.438;16.744;2023-07-20T02:37:30;15.00;96.10
76936;DHT22;65881;52.438;16.744;2023-07-20T02:39:56;15.00;96.20
76936;DHT22;65881;52.438;16.744;2023-07-20T02:42:21;15.00;96.50
76936;DHT22;65881;52.438;16.744;2023-07-20T02:44:48;15.00;96.20
76936;DHT22;65881;52.438;16.744;2023-07-20T02:47:14;15.00;96.60
76936;DHT22;65881;52.438;16.744;2023-07-20T02:49:40;15.00;96.50
76936;DHT22;65881;52.438;16.744;2023-07-20T02:52:06;15.00;96.70
76936;DHT22;65881;52.438;16.744;2023-07-20T02:54:32;15.00;96.80
76936;DHT22;65881;52.438;16.744;2023-07-20T02:56:57;15.00;96.60
76936;DHT22;65881;52.438;16.744;2023-07-20T02:59:23;15.00;96.40
76936;DHT22;65881;52.438;16.744;2023-07-20T03:01:49;15.00;96.80
76936;DHT22;65881;52.438;16.744;2023-07-20T03:04:15;15.00;96.30
76936;DHT22;65881;52.438;16.744;2023-07-20T03:06:41;15.00;96.30
76936;DHT22;65881;52.438;16.744;2023-07-20T03:09:08;15.00;96.20
76936;DHT22;65881;52.438;16.744;2023-07-20T03:11:34;15.00;96.30
76936;DHT22;65881;52.438;16.744;2023-07-20T03:14:02;15.00;96.20
76936;DHT22;65881;52.438;16.744;2023-07-20T03:16:28;14.90;96.20
76936;DHT22;65881;52.438;16.744;2023-07-20T03:18:54;14.90;96.80
76936;DHT22;65881;52.438;16.744;2023-07-20T03:21:20;14.90;96.80
76936;DHT22;65881;52.438;16.744;2023-07-20T03:23:46;14.90;97.10
76936;DHT22;65881;52.438;16.744;2023-07-20T03:26:11;14.90;97.00
76936;DHT22;65881;52.438;16.744;2023-07-20T03:28:37;14.90;97.10
76936;DHT22;65881;52.438;16.744;2023-07-20T03:31:04;14.90;97.20
76936;DHT22;65881;52.438;16.744;2023-07-20T03:33:31;14.90;97.40
76936;DHT22;65881;52.438;16.744;2023-07-20T03:35:57;14.90;97.50
76936;DHT22;65881;52.438;16.744;2023-07-20T03:38:24;14.90;97.80
76936;DHT22;65881;52.438;16.744;2023-07-20T03:40:59;15.00;97.90
76936;DHT22;65881;52.438;16.744;2023-07-20T03:43:27;15.00;97.80
76936;DHT22;65881;52.438;16.744;2023-07-20T03:45:53;15.00;97.70
76936;DHT22;65881;52.438;16.744;2023-07-20T03:48:22;15.00;98.00
76936;DHT22;65881;52.438;16.744;2023-07-20T03:50:51;15.00;98.00
76936;DHT22;65881;52.438;16.744;2023-07-20T03:53:17;15.00;97.40
76936;DHT22;65881;52.438;16.744;2023-07-20T03:55:47;15.00;97.30
76936;DHT22;65881;52.438;16.744;2023-07-20T03:58:14;15.00;96.90
76936;DHT22;65881;52.438;16.744;2023-07-20T04:00:40;15.00;96.80
76936;DHT22;65881;52.438;16.744;2023-07-20T04:03:08;15.00;96.80
76936;DHT22;65881;52.438;16.744;2023-07-20T04:05:34;15.00;97.00
76936;DHT22;65881;52.438;16.744;2023-07-20T04:07:59;15.00;97.00
76936;DHT22;65881;52.438;16.744;2023-07-20T04:10:25;15.00;96.90
76936;DHT22;65881;52.438;16.744;2023-07-20T04:12:50;15.00;96.90
76936;DHT22;65881;52.438;16.744;2023-07-20T04:15:16;15.00;96.90
76936;DHT22;65881;52.438;16.744;2023-07-20T04:17:42;15.00;96.20
76936;DHT22;65881;52.438;16.744;2023-07-20T04:20:08;15.10;96.10
76936;DHT22;65881;52.438;16.744;2023-07-20T04:22:34;15.10;96.20
76936;DHT22;65881;52.438;16.744;2023-07-20T04:25:00;15.00;96.30
76936;DHT22;65881;52.438;16.744;2023-07-20T04:27:25;15.10;96.40
76936;DHT22;65881;52.438;16.744;2023-07-20T04:29:52;15.10;96.40
76936;DHT22;65881;52.438;16.744;2023-07-20T04:32:20;15.10;96.40
76936;DHT22;65881;52.438;16.744;2023-07-20T04:34:46;15.20;96.60
76936;DHT22;65881;52.438;16.744;2023-07-20T04:37:12;15.20;96.50
76936;DHT22;65881;52.438;16.744;2023-07-20T04:39:47;15.30;96.90
76936;DHT22;65881;52.438;16.744;2023-07-20T04:42:12;15.40;96.80
76936;DHT22;65881;52.438;16.744;2023-07-20T04:44:44;15.40;96.50
76936;DHT22;65881;52.438;16.744;2023-07-20T04:47:11;15.50;96.20
76936;DHT22;65881;52.438;16.744;2023-07-20T04:49:37;15.50;96.00
76936;DHT22;65881;52.438;16.744;2023-07-20T04:52:03;15.50;95.40
76936;DHT22;65881;52.438;16.744;2023-07-20T04:54:28;15.50;95.60
76936;DHT22;65881;52.438;16.744;2023-07-20T04:56:54;15.60;95.70
76936;DHT22;65881;52.438;16.744;2023-07-20T04:59:20;15.60;95.30
76936;DHT22;65881;52.438;16.744;2023-07-20T05:01:46;15.60;95.30
76936;DHT22;65881;52.438;16.744;2023-07-20T05:04:40;15.60;95.10
76936;DHT22;65881;52.438;16.744;2023-07-20T05:07:21;15.60;94.50
76936;DHT22;65881;52.438;16.744;2023-07-20T05:09:56;15.60;94.10
76936;DHT22;65881;52.438;16.744;2023-07-20T05:12:37;15.60;94.50
76936;DHT22;65881;52.438;16.744;2023-07-20T05:15:15;15.60;94.10
76936;DHT22;65881;52.438;16.744;2023-07-20T05:17:42;15.50;93.80
76936;DHT22;65881;52.438;16.744;2023-07-20T05:20:23;15.60;94.10
76936;DHT22;65881;52.438;16.744;2023-07-20T05:22:49;15.50;94.10
76936;DHT22;65881;52.438;16.744;2023-07-20T05:25:19;15.60;93.70
76936;DHT22;65881;52.438;16.744;2023-07-20T05:27:53;15.60;93.80
76936;DHT22;65881;52.438;16.744;2023-07-20T05:30:35;15.70;94.00
76936;DHT22;65881;52.438;16.744;2023-07-20T05:33:26;15.70;93.60
76936;DHT22;65881;52.438;16.744;2023-07-20T05:36:07;15.80;92.20
76936;DHT22;65881;52.438;16.744;2023-07-20T05:38:39;15.80;91.20
76936;DHT22;65881;52.438;16.744;2023-07-20T05:41:05;15.80;91.10
76936;DHT22;65881;52.438;16.744;2023-07-20T05:43:34;15.80;91.10
76936;DHT22;65881;52.438;16.744;2023-07-20T05:46:00;15.90;91.70
76936;DHT22;65881;52.438;16.744;2023-07-20T05:48:28;16.00;92.20
76936;DHT22;65881;52.438;16.744;2023-07-20T05:50:53;16.10;90.20
76936;DHT22;65881;52.438;16.744;2023-07-20T05:53:20;16.20;90.10
76936;DHT22;65881;52.438;16.744;2023-07-20T05:55:55;16.20;89.70
76936;DHT22;65881;52.438;16.744;2023-07-20T05:58:21;16.20;89.00
76936;DHT22;65881;52.438;16.744;2023-07-20T06:01:03;16.30;88.60
76936;DHT22;65881;52.438;16.744;2023-07-20T06:03:34;16.20;88.60
76936;DHT22;65881;52.438;16.744;2023-07-20T06:06:03;16.20;89.00
76936;DHT22;65881;52.438;16.744;2023-07-20T06:08:32;16.20;88.60
76936;DHT22;65881;52.438;16.744;2023-07-20T06:10:57;16.20;88.90
76936;DHT22;65881;52.438;16.744;2023-07-20T06:13:23;16.20;89.10
76936;DHT22;65881;52.438;16.744;2023-07-20T06:15:55;16.30;90.20
76936;DHT22;65881;52.438;16.744;2023-07-20T06:18:23;16.40;87.30
76936;DHT22;65881;52.438;16.744;2023-07-20T06:20:50;16.40;85.90
76936;DHT22;65881;52.438;16.744;2023-07-20T06:23:25;16.60;85.50
76936;DHT22;65881;52.438;16.744;2023-07-20T06:25:51;16.70;84.20
76936;DHT22;65881;52.438;16.744;2023-07-20T06:28:17;16.80;82.80
76936;DHT22;65881;52.438;16.744;2023-07-20T06:30:43;16.80;81.00
76936;DHT22;65881;52.438;16.744;2023-07-20T06:33:09;16.90;81.30
76936;DHT22;65881;52.438;16.744;2023-07-20T06:35:47;17.00;82.00
76936;DHT22;65881;52.438;16.744;2023-07-20T06:38:25;17.20;79.00
76936;DHT22;65881;52.438;16.744;2023-07-20T06:40:55;17.40;79.00
76936;DHT22;65881;52.438;16.744;2023-07-20T06:43:39;17.50;77.60
76936;DHT22;65881;52.438;16.744;2023-07-20T06:46:04;17.60;76.70
76936;DHT22;65881;52.438;16.744;2023-07-20T06:48:30;17.70;75.40
76936;DHT22;65881;52.438;16.744;2023-07-20T06:50:59;17.80;75.40
76936;DHT22;65881;52.438;16.744;2023-07-20T06:53:24;17.80;75.50
76936;DHT22;65881;52.438;16.744;2023-07-20T06:55:53;17.90;77.20
76936;DHT22;65881;52.438;16.744;2023-07-20T06:58:25;18.00;76.00
76936;DHT22;65881;52.438;16.744;2023-07-20T07:00:51;18.00;74.80
76936;DHT22;65881;52.438;16.744;2023-07-20T07:03:17;18.10;74.70
76936;DHT22;65881;52.438;16.744;2023-07-20T07:05:43;18.30;76.20
76936;DHT22;65881;52.438;16.744;2023-07-20T07:08:11;18.40;75.50
76936;DHT22;65881;52.438;16.744;2023-07-20T07:10:39;18.40;74.50
76936;DHT22;65881;52.438;16.744;2023-07-20T07:13:05;18.40;72.60
76936;DHT22;65881;52.438;16.744;2023-07-20T07:15:32;18.40;71.90
76936;DHT22;65881;52.438;16.744;2023-07-20T07:17:57;18.50;72.30
76936;DHT22;65881;52.438;16.744;2023-07-20T07:20:24;18.40;73.20
76936;DHT22;65881;52.438;16.744;2023-07-20T07:22:55;18.40;73.20
76936;DHT22;65881;52.438;16.744;2023-07-20T07:25:34;18.50;71.90
76936;DHT22;65881;52.438;16.744;2023-07-20T07:28:00;18.50;71.60
76936;DHT22;65881;52.438;16.744;2023-07-20T07:30:25;18.50;72.30
76936;DHT22;65881;52.438;16.744;2023-07-20T07:32:57;18.50;71.40
76936;DHT22;65881;52.438;16.744;2023-07-20T07:35:32;18.40;71.60
76936;DHT22;65881;52.438;16.744;2023-07-20T07:37:58;18.40;72.20
76936;DHT22;65881;52.438;16.744;2023-07-20T07:40:27;18.40;69.90
76936;DHT22;65881;52.438;16.744;2023-07-20T07:43:14;18.40;70.70
76936;DHT22;65881;52.438;16.744;2023-07-20T07:45:48;18.50;70.70
76936;DHT22;65881;52.438;16.744;2023-07-20T07:48:22;18.40;70.90
76936;DHT22;65881;52.438;16.744;2023-07-20T07:50:48;18.50;70.90
76936;DHT22;65881;52.438;16.744;2023-07-20T07:53:43;18.50;71.90
76936;DHT22;65881;52.438;16.744;2023-07-20T07:56:18;18.50;71.70
76936;DHT22;65881;52.438;16.744;2023-07-20T07:59:02;18.60;71.50
76936;DHT22;65881;52.438;16.744;2023-07-20T08:01:45;18.70;73.40
76936;DHT22;65881;52.438;16.744;2023-07-20T08:04:33;18.90;70.60
76936;DHT22;65881;52.438;16.744;2023-07-20T08:06:59;19.20;69.60
76936;DHT22;65881;52.438;16.744;2023-07-20T08:12:29;19.60;66.40
76936;DHT22;65881;52.438;16.744;2023-07-20T08:15:06;19.50;67.00
76936;DHT22;65881;52.438;16.744;2023-07-20T08:17:35;19.50;66.20
76936;DHT22;65881;52.438;16.744;2023-07-20T08:20:13;19.60;66.30
76936;DHT22;65881;52.438;16.744;2023-07-20T08:22:51;19.40;66.70
76936;DHT22;65881;52.438;16.744;2023-07-20T08:25:17;19.20;68.70
76936;DHT22;65881;52.438;16.744;2023-07-20T08:27:49;19.20;70.20
76936;DHT22;65881;52.438;16.744;2023-07-20T08:30:52;19.10;67.90
76936;DHT22;65881;52.438;16.744;2023-07-20T08:33:18;19.00;68.70
76936;DHT22;65881;52.438;16.744;2023-07-20T08:35:55;19.00;69.70
76936;DHT22;65881;52.438;16.744;2023-07-20T08:38:31;19.00;70.50
76936;DHT22;65881;52.438;16.744;2023-07-20T08:40:56;19.00;69.10
76936;DHT22;65881;52.438;16.744;2023-07-20T08:43:25;19.00;69.10
76936;DHT22;65881;52.438;16.744;2023-07-20T08:46:00;19.00;69.40
76936;DHT22;65881;52.438;16.744;2023-07-20T08:48:28;18.90;67.50
76936;DHT22;65881;52.438;16.744;2023-07-20T08:51:07;18.80;68.40
76936;DHT22;65881;52.438;16.744;2023-07-20T08:53:36;18.60;68.00
76936;DHT22;65881;52.438;16.744;2023-07-20T08:56:02;18.50;68.20
76936;DHT22;65881;52.438;16.744;2023-07-20T08:58:30;18.50;68.70
76936;DHT22;65881;52.438;16.744;2023-07-20T09:00:58;18.30;64.70
76936;DHT22;65881;52.438;16.744;2023-07-20T09:03:26;17.70;63.60
76936;DHT22;65881;52.438;16.744;2023-07-20T09:05:54;16.60;63.70
76936;DHT22;65881;52.438;16.744;2023-07-20T09:08:20;16.00;65.10
76936;DHT22;65881;52.438;16.744;2023-07-20T09:10:57;15.80;65.30
76936;DHT22;65881;52.438;16.744;2023-07-20T09:16:53;15.60;69.60
76936;DHT22;65881;52.438;16.744;2023-07-20T09:19:26;15.20;72.30
76936;DHT22;65881;52.438;16.744;2023-07-20T09:22:05;15.00;74.20
76936;DHT22;65881;52.438;16.744;2023-07-20T09:24:55;15.00;75.30
76936;DHT22;65881;52.438;16.744;2023-07-20T09:27:42;15.20;75.50
76936;DHT22;65881;52.438;16.744;2023-07-20T09:30:37;15.50;74.70
76936;DHT22;65881;52.438;16.744;2023-07-20T09:33:21;16.10;74.60
76936;DHT22;65881;52.438;16.744;2023-07-20T09:36:03;17.00;72.20
76936;DHT22;65881;52.438;16.744;2023-07-20T09:38:42;17.50;69.20
76936;DHT22;65881;52.438;16.744;2023-07-20T09:41:15;18.00;68.30
76936;DHT22;65881;52.438;16.744;2023-07-20T09:43:47;18.70;68.20
76936;DHT22;65881;52.438;16.744;2023-07-20T09:46:13;19.40;67.20
76936;DHT22;65881;52.438;16.744;2023-07-20T09:48:52;20.00;64.20
76936;DHT22;65881;52.438;16.744;2023-07-20T09:51:22;20.30;61.00
76936;DHT22;65881;52.438;16.744;2023-07-20T09:53:49;20.80;58.30
76936;DHT22;65881;52.438;16.744;2023-07-20T09:56:24;21.10;58.90
76936;DHT22;65881;52.438;16.744;2023-07-20T09:59:10;21.40;57.40
76936;DHT22;65881;52.438;16.744;2023-07-20T10:01:58;21.40;59.00
76936;DHT22;65881;52.438;16.744;2023-07-20T10:04:29;21.50;58.80
76936;DHT22;65881;52.438;16.744;2023-07-20T10:07:14;21.90;58.80
76936;DHT22;65881;52.438;16.744;2023-07-20T10:09:41;22.00;58.40
76936;DHT22;65881;52.438;16.744;2023-07-20T10:12:12;22.00;58.20
76936;DHT22;65881;52.438;16.744;2023-07-20T10:14:41;21.90;58.90
76936;DHT22;65881;52.438;16.744;2023-07-20T10:17:11;22.30;57.80
76936;DHT22;65881;52.438;16.744;2023-07-20T10:19:47;22.20;57.20
76936;DHT22;65881;52.438;16.744;2023-07-20T10:22:26;21.80;58.70
76936;DHT22;65881;52.438;16.744;2023-07-20T10:24:52;21.30;59.40
76936;DHT22;65881;52.438;16.744;2023-07-20T10:27:22;21.30;60.40
76936;DHT22;65881;52.438;16.744;2023-07-20T10:30:06;21.50;59.60
76936;DHT22;65881;52.438;16.744;2023-07-20T10:32:35;21.50;58.40
76936;DHT22;65881;52.438;16.744;2023-07-20T10:35:12;21.40;58.50
76936;DHT22;65881;52.438;16.744;2023-07-20T10:37:53;21.00;58.70
76936;DHT22;65881;52.438;16.744;2023-07-20T10:40:32;21.00;59.30
76936;DHT22;65881;52.438;16.744;2023-07-20T10:43:03;21.40;59.30
76936;DHT22;65881;52.438;16.744;2023-07-20T10:45:49;21.50;57.40
76936;DHT22;65881;52.438;16.744;2023-07-20T10:55:28;22.40;53.80
76936;DHT22;65881;52.438;16.744;2023-07-20T10:58:08;22.40;54.00
76936;DHT22;65881;52.438;16.744;2023-07-20T11:00:54;22.00;54.50
76936;DHT22;65881;52.438;16.744;2023-07-20T11:04:10;21.80;56.20
76936;DHT22;65881;52.438;16.744;2023-07-20T11:09:10;21.20;57.60
76936;DHT22;65881;52.438;16.744;2023-07-20T11:12:13;21.20;58.20
76936;DHT22;65881;52.438;16.744;2023-07-20T11:14:59;21.50;58.60
76936;DHT22;65881;52.438;16.744;2023-07-20T11:17:43;21.30;57.40
76936;DHT22;65881;52.438;16.744;2023-07-20T11:20:13;21.40;57.50
76936;DHT22;65881;52.438;16.744;2023-07-20T11:22:49;21.40;56.90
76936;DHT22;65881;52.438;16.744;2023-07-20T11:25:19;21.20;56.40
76936;DHT22;65881;52.438;16.744;2023-07-20T11:27:48;21.90;54.20
76936;DHT22;65881;52.438;16.744;2023-07-20T11:30:26;22.40;52.30
76936;DHT22;65881;52.438;16.744;2023-07-20T11:32:58;22.20;50.50
76936;DHT22;65881;52.438;16.744;2023-07-20T11:35:24;21.70;51.60
76936;DHT22;65881;52.438;16.744;2023-07-20T11:37:58;21.30;52.70
76936;DHT22;65881;52.438;16.744;2023-07-20T11:40:33;21.10;55.10
76936;DHT22;65881;52.438;16.744;2023-07-20T11:43:13;21.50;54.00
76936;DHT22;65881;52.438;16.744;2023-07-20T11:45:39;21.80;54.30
76936;DHT22;65881;52.438;16.744;2023-07-20T11:48:07;22.20;54.10
76936;DHT22;65881;52.438;16.744;2023-07-20T11:50:57;22.60;51.00
76936;DHT22;65881;52.438;16.744;2023-07-20T11:53:24;22.80;50.20
76936;DHT22;65881;52.438;16.744;2023-07-20T11:55:53;23.10;50.00
76936;DHT22;65881;52.438;16.744;2023-07-20T11:58:35;23.50;48.30
76936;DHT22;65881;52.438;16.744;2023-07-20T12:01:28;23.80;49.20
76936;DHT22;65881;52.438;16.744;2023-07-20T12:04:04;23.60;46.80
76936;DHT22;65881;52.438;16.744;2023-07-20T12:06:33;23.80;45.90
76936;DHT22;65881;52.438;16.744;2023-07-20T12:09:15;23.90;44.40
76936;DHT22;65881;52.438;16.744;2023-07-20T12:11:54;24.10;46.20
76936;DHT22;65881;52.438;16.744;2023-07-20T12:14:29;24.00;45.30
76936;DHT22;65881;52.438;16.744;2023-07-20T12:16:55;24.40;45.50
76936;DHT22;65881;52.438;16.744;2023-07-20T12:19:38;24.70;43.10
76936;DHT22;65881;52.438;16.744;2023-07-20T12:22:19;24.50;43.30
76936;DHT22;65881;52.438;16.744;2023-07-20T12:28:12;24.30;45.20
76936;DHT22;65881;52.438;16.744;2023-07-20T12:30:40;24.20;45.20
76936;DHT22;65881;52.438;16.744;2023-07-20T12:33:18;23.80;45.40
76936;DHT22;65881;52.438;16.744;2023-07-20T12:35:44;23.10;46.10
76936;DHT22;65881;52.438;16.744;2023-07-20T12:38:13;23.10;47.90
76936;DHT22;65881;52.438;16.744;2023-07-20T12:40:38;23.40;46.50
76936;DHT22;65881;52.438;16.744;2023-07-20T12:43:07;23.50;44.40
76936;DHT22;65881;52.438;16.744;2023-07-20T12:45:34;23.30;46.10
76936;DHT22;65881;52.438;16.744;2023-07-20T12:47:59;23.40;45.90
76936;DHT22;65881;52.438;16.744;2023-07-20T12:50:57;23.50;44.60
76936;DHT22;65881;52.438;16.744;2023-07-20T12:53:29;23.50;44.90
76936;DHT22;65881;52.438;16.744;2023-07-20T12:55:54;23.10;46.90
76936;DHT22;65881;52.438;16.744;2023-07-20T12:58:34;22.60;47.90
76936;DHT22;65881;52.438;16.744;2023-07-20T13:01:09;22.30;49.00
76936;DHT22;65881;52.438;16.744;2023-07-20T13:03:34;21.70;50.20
76936;DHT22;65881;52.438;16.744;2023-07-20T13:06:00;21.50;50.30
76936;DHT22;65881;52.438;16.744;2023-07-20T13:08:38;21.70;51.60
76936;DHT22;65881;52.438;16.744;2023-07-20T13:11:03;21.90;50.20
76936;DHT22;65881;52.438;16.744;2023-07-20T13:13:30;21.50;51.10
76936;DHT22;65881;52.438;16.744;2023-07-20T13:15:56;21.80;52.00
76936;DHT22;65881;52.438;16.744;2023-07-20T13:18:22;22.30;50.90
76936;DHT22;65881;52.438;16.744;2023-07-20T13:20:48;22.60;50.10
76936;DHT22;65881;52.438;16.744;2023-07-20T13:23:14;22.70;49.50
76936;DHT22;65881;52.438;16.744;2023-07-20T13:25:40;22.80;49.30
76936;DHT22;65881;52.438;16.744;2023-07-20T13:28:06;22.80;48.00
76936;DHT22;65881;52.438;16.744;2023-07-20T13:30:32;22.70;47.50
76936;DHT22;65881;52.438;16.744;2023-07-20T13:32:58;22.60;48.90
76936;DHT22;65881;52.438;16.744;2023-07-20T13:35:23;22.50;48.10
76936;DHT22;65881;52.438;16.744;2023-07-20T13:37:52;22.40;48.00
76936;DHT22;65881;52.438;16.744;2023-07-20T13:40:18;22.20;48.90
76936;DHT22;65881;52.438;16.744;2023-07-20T13:42:45;22.00;50.20
76936;DHT22;65881;52.438;16.744;2023-07-20T13:45:10;22.00;50.00
76936;DHT22;65881;52.438;16.744;2023-07-20T13:47:36;22.20;48.30
76936;DHT22;65881;52.438;16.744;2023-07-20T13:50:02;22.30;47.50
76936;DHT22;65881;52.438;16.744;2023-07-20T13:52:30;22.20;46.80
76936;DHT22;65881;52.438;16.744;2023-07-20T13:54:59;22.10;48.20
76936;DHT22;65881;52.438;16.744;2023-07-20T13:57:24;22.20;48.50
76936;DHT22;65881;52.438;16.744;2023-07-20T13:59:50;22.20;47.50
76936;DHT22;65881;52.438;16.744;2023-07-20T14:02:16;22.40;46.20
76936;DHT22;65881;52.438;16.744;2023-07-20T14:04:41;22.30;46.50
76936;DHT22;65881;52.438;16.744;2023-07-20T14:07:07;22.20;47.00
76936;DHT22;65881;52.438;16.744;2023-07-20T14:09:33;22.10;47.50
76936;DHT22;65881;52.438;16.744;2023-07-20T14:11:58;22.00;47.20
76936;DHT22;65881;52.438;16.744;2023-07-20T14:14:30;21.90;47.80
76936;DHT22;65881;52.438;16.744;2023-07-20T14:16:55;21.90;47.80
76936;DHT22;65881;52.438;16.744;2023-07-20T14:19:24;21.90;48.70
76936;DHT22;65881;52.438;16.744;2023-07-20T14:21:54;21.90;48.30
76936;DHT22;65881;52.438;16.744;2023-07-20T14:24:20;21.90;48.20
76936;DHT22;65881;52.438;16.744;2023-07-20T14:26:46;21.90;49.40
76936;DHT22;65881;52.438;16.744;2023-07-20T14:29:13;22.00;48.40
76936;DHT22;65881;52.438;16.744;2023-07-20T14:31:46;22.10;48.40
76936;DHT22;65881;52.438;16.744;2023-07-20T14:34:19;22.00;47.50
76936;DHT22;65881;52.438;16.744;2023-07-20T14:36:45;22.10;48.30
76936;DHT22;65881;52.438;16.744;2023-07-20T14:39:13;21.90;51.70
76936;DHT22;65881;52.438;16.744;2023-07-20T14:41:39;21.10;53.40
76936;DHT22;65881;52.438;16.744;2023-07-20T14:44:04;20.80;54.00
76936;DHT22;65881;52.438;16.744;2023-07-20T14:46:30;20.30;55.00
76936;DHT22;65881;52.438;16.744;2023-07-20T14:48:59;20.30;55.50
76936;DHT22;65881;52.438;16.744;2023-07-20T14:51:42;20.20;56.40
76936;DHT22;65881;52.438;16.744;2023-07-20T14:54:12;20.60;56.10
76936;DHT22;65881;52.438;16.744;2023-07-20T14:56:38;21.00;54.10
76936;DHT22;65881;52.438;16.744;2023-07-20T14:59:04;21.10;53.20
76936;DHT22;65881;52.438;16.744;2023-07-20T15:01:31;20.60;52.90
76936;DHT22;65881;52.438;16.744;2023-07-20T15:03:57;20.30;55.40
76936;DHT22;65881;52.438;16.744;2023-07-20T15:06:23;20.60;54.50
76936;DHT22;65881;52.438;16.744;2023-07-20T15:08:49;20.80;54.30
76936;DHT22;65881;52.438;16.744;2023-07-20T15:11:14;20.50;53.60
76936;DHT22;65881;52.438;16.744;2023-07-20T15:13:41;20.50;53.80
76936;DHT22;65881;52.438;16.744;2023-07-20T15:16:08;20.50;54.40
76936;DHT22;65881;52.438;16.744;2023-07-20T15:18:36;20.70;55.50
76936;DHT22;65881;52.438;16.744;2023-07-20T15:21:02;21.00;54.00
76936;DHT22;65881;52.438;16.744;2023-07-20T15:23:27;21.00;53.40
76936;DHT22;65881;52.438;16.744;2023-07-20T15:25:53;21.00;54.40
76936;DHT22;65881;52.438;16.744;2023-07-20T15:28:19;21.10;54.70
76936;DHT22;65881;52.438;16.744;2023-07-20T15:30:44;21.40;54.40
76936;DHT22;65881;52.438;16.744;2023-07-20T15:33:10;21.40;53.10
76936;DHT22;65881;52.438;16.744;2023-07-20T15:35:37;21.10;53.20
76936;DHT22;65881;52.438;16.744;2023-07-20T15:38:03;20.80;54.10
76936;DHT22;65881;52.438;16.744;2023-07-20T15:40:28;20.70;54.40
76936;DHT22;65881;52.438;16.744;2023-07-20T15:42:54;20.70;55.00
76936;DHT22;65881;52.438;16.744;2023-07-20T15:45:21;20.60;55.80
76936;DHT22;65881;52.438;16.744;2023-07-20T15:47:47;20.60;55.70
76936;DHT22;65881;52.438;16.744;2023-07-20T15:50:13;20.60;56.00
76936;DHT22;65881;52.438;16.744;2023-07-20T15:52:39;20.50;56.50
76936;DHT22;65881;52.438;16.744;2023-07-20T15:55:07;20.30;58.00
76936;DHT22;65881;52.438;16.744;2023-07-20T15:57:33;20.20;61.40
76936;DHT22;65881;52.438;16.744;2023-07-20T16:00:00;20.10;63.30
76936;DHT22;65881;52.438;16.744;2023-07-20T16:02:26;19.60;66.00